sensor_id;sensor_type;location;lat;lon;timestamp;P1;durP1;ratioP1;P2;durP2;ratioP2
60432;SDS011;46286;48.098;11.590;2022-12-18T00:02:10;42.50;;;14.95;;
60432;SDS011;46286;48.098;11.590;2022-12-18T00:04:36;41.47;;;13.70;;
60432;SDS011;46286;48.098;11.590;2022-12-18T00:07:01;40.50;;;15.43;;
60432;SDS011;46286;48.098;11.590;2022-12-18T00:09:27;42.90;;;14.25;;
60432;SDS011;46286;48.098;11.590;2022-12-18T00:11:52;46.03;;;15.77;;
60432;SDS011;46286;48.098;11.590;2022-12-18T00:14:18;35.90;;;14.13;;
60432;SDS011;46286;48.098;11.590;2022-12-18T00:16:44;40.17;;;13.68;;
60432;SDS011;46286;48.098;11.590;2022-12-18T00:19:11;34.85;;;12.35;;
60432;SDS011;46286;48.098;11.590;2022-12-18T00:21:37;40.90;;;13.30;;
60432;SDS011;46286;48.098;11.590;2022-12-18T00:24:02;40.10;;;13.43;;
60432;SDS011;46286;48.098;11.590;2022-12-18T00:26:29;41.05;;;13.70;;
60432;SDS011;46286;48.098;11.590;2022-12-18T00:29:03;38.65;;;12.73;;
60432;SDS011;46286;48.098;11.590;2022-12-18T00:31:32;38.50;;;14.52;;
60432;SDS011;46286;48.098;11.590;2022-12-18T00:33:57;32.00;;;12.02;;
60432;SDS011;46286;48.098;11.590;2022-12-18T00:36:24;34.05;;;12.90;;
60432;SDS011;46286;48.098;11.590;2022-12-18T00:38:55;39.92;;;13.73;;
60432;SDS011;46286;48.098;11.590;2022-12-18T00:41:22;35.10;;;13.88;;
60432;SDS011;46286;48.098;11.590;2022-12-18T00:46:34;33.58;;;12.95;;
60432;SDS011;46286;48.098;11.590;2022-12-18T00:49:00;31.95;;;11.43;;
60432;SDS011;46286;48.098;11.590;2022-12-18T00:51:26;34.47;;;12.23;;
60432;SDS011;46286;48.098;11.590;2022-12-18T00:53:52;38.00;;;12.75;;
60432;SDS011;46286;48.098;11.590;2022-12-18T00:56:18;35.55;;;13.55;;
60432;SDS011;46286;48.098;11.590;2022-12-18T00:58:43;34.35;;;11.75;;
60432;SDS011;46286;48.098;11.590;2022-12-18T01:01:09;29.08;;;11.50;;
60432;SDS011;46286;48.098;11.590;2022-12-18T01:03:34;34.90;;;13.48;;
60432;SDS011;46286;48.098;11.590;2022-12-18T01:06:05;34.08;;;12.68;;
60432;SDS011;46286;48.098;11.590;2022-12-18T01:08:31;40.22;;;13.55;;
60432;SDS011;46286;48.098;11.590;2022-12-18T01:10:57;43.85;;;13.50;;
60432;SDS011;46286;48.098;11.590;2022-12-18T01:13:22;42.90;;;13.63;;
60432;SDS011;46286;48.098;11.590;2022-12-18T01:15:51;37.67;;;11.65;;
60432;SDS011;46286;48.098;11.590;2022-12-18T01:18:17;40.50;;;12.93;;
60432;SDS011;46286;48.098;11.590;2022-12-18T01:20:42;33.63;;;12.30;;
60432;SDS011;46286;48.098;11.590;2022-12-18T01:23:08;45.47;;;13.45;;
60432;SDS011;46286;48.098;11.590;2022-12-18T01:25:35;37.25;;;11.90;;
60432;SDS011;46286;48.098;11.590;2022-12-18T01:28:01;36.15;;;12.50;;
60432;SDS011;46286;48.098;11.590;2022-12-18T01:30:27;39.83;;;12.85;;
60432;SDS011;46286;48.098;11.590;2022-12-18T01:32:52;38.88;;;13.68;;
60432;SDS011;46286;48.098;11.590;2022-12-18T01:35:18;38.67;;;12.55;;
60432;SDS011;46286;48.098;11.590;2022-12-18T01:37:44;35.08;;;13.50;;
60432;SDS011;46286;48.098;11.590;2022-12-18T01:40:10;34.75;;;11.63;;
60432;SDS011;46286;48.098;11.590;2022-12-18T01:42:35;33.05;;;12.88;;
60432;SDS011;46286;48.098;11.590;2022-12-18T01:50:16;43.40;;;14.43;;
60432;SDS011;46286;48.098;11.590;2022-12-18T01:52:45;46.20;;;13.02;;
60432;SDS011;46286;48.098;11.590;2022-12-18T01:55:14;45.25;;;14.15;;
60432;SDS011;46286;48.098;11.590;2022-12-18T01:57:43;33.15;;;13.02;;
60432;SDS011;46286;48.098;11.590;2022-12-18T02:00:19;44.53;;;14.15;;
60432;SDS011;46286;48.098;11.590;2022-12-18T02:02:46;39.40;;;13.52;;
60432;SDS011;46286;48.098;11.590;2022-12-18T02:05:16;48.45;;;15.27;;
60432;SDS011;46286;48.098;11.590;2022-12-18T02:10:41;51.30;;;16.38;;
60432;SDS011;46286;48.098;11.590;2022-12-18T02:18:38;43.38;;;13.13;;
60432;SDS011;46286;48.098;11.590;2022-12-18T02:26:36;43.00;;;14.48;;
60432;SDS011;46286;48.098;11.590;2022-12-18T02:29:08;43.75;;;14.48;;
60432;SDS011;46286;48.098;11.590;2022-12-18T02:31:42;46.22;;;14.50;;
60432;SDS011;46286;48.098;11.590;2022-12-18T02:34:12;40.85;;;14.95;;
60432;SDS011;46286;48.098;11.590;2022-12-18T02:36:40;42.00;;;13.60;;
60432;SDS011;46286;48.098;11.590;2022-12-18T02:39:09;47.97;;;14.80;;
60432;SDS011;46286;48.098;11.590;2022-12-18T02:41:37;38.28;;;14.98;;
60432;SDS011;46286;48.098;11.590;2022-12-18T02:44:07;47.00;;;13.93;;
60432;SDS011;46286;48.098;11.590;2022-12-18T02:46:36;45.53;;;15.02;;
60432;SDS011;46286;48.098;11.590;2022-12-18T02:51:58;40.28;;;14.38;;
60432;SDS011;46286;48.098;11.590;2022-12-18T02:57:48;38.33;;;14.13;;
60432;SDS011;46286;48.098;11.590;2022-12-18T03:00:19;37.60;;;12.50;;
60432;SDS011;46286;48.098;11.590;2022-12-18T03:02:53;40.67;;;16.23;;
60432;SDS011;46286;48.098;11.590;2022-12-18T03:05:40;38.60;;;15.00;;
60432;SDS011;46286;48.098;11.590;2022-12-18T03:08:18;47.10;;;14.77;;
60432;SDS011;46286;48.098;11.590;2022-12-18T03:11:21;40.13;;;13.98;;
60432;SDS011;46286;48.098;11.590;2022-12-18T03:13:42;42.90;;;14.77;;
60432;SDS011;46286;48.098;11.590;2022-12-18T03:16:11;45.50;;;15.00;;
60432;SDS011;46286;48.098;11.590;2022-12-18T03:18:51;52.35;;;14.75;;
60432;SDS011;46286;48.098;11.590;2022-12-18T03:21:22;41.13;;;15.23;;
60432;SDS011;46286;48.098;11.590;2022-12-18T03:23:53;42.35;;;14.55;;
60432;SDS011;46286;48.098;11.590;2022-12-18T03:26:22;46.45;;;14.10;;
60432;SDS011;46286;48.098;11.590;2022-12-18T03:28:59;40.50;;;13.88;;
60432;SDS011;46286;48.098;11.590;2022-12-18T03:31:32;45.15;;;13.45;;
60432;SDS011;46286;48.098;11.590;2022-12-18T03:33:58;38.50;;;13.68;;
60432;SDS011;46286;48.098;11.590;2022-12-18T03:36:27;52.63;;;15.73;;
60432;SDS011;46286;48.098;11.590;2022-12-18T03:38:53;39.72;;;14.02;;
60432;SDS011;46286;48.098;11.590;2022-12-18T03:41:19;45.65;;;14.45;;
60432;SDS011;46286;48.098;11.590;2022-12-18T03:46:55;43.25;;;15.30;;
60432;SDS011;46286;48.098;11.590;2022-12-18T03:52:13;45.47;;;16.13;;
60432;SDS011;46286;48.098;11.590;2022-12-18T03:54:41;46.10;;;15.57;;
60432;SDS011;46286;48.098;11.590;2022-12-18T03:57:11;40.22;;;13.60;;
60432;SDS011;46286;48.098;11.590;2022-12-18T03:59:42;30.88;;;10.85;;
60432;SDS011;46286;48.098;11.590;2022-12-18T04:02:10;47.67;;;15.65;;
60432;SDS011;46286;48.098;11.590;2022-12-18T04:04:37;43.70;;;14.13;;
60432;SDS011;46286;48.098;11.590;2022-12-18T04:07:03;37.95;;;14.25;;
60432;SDS011;46286;48.098;11.590;2022-12-18T04:09:31;39.28;;;14.10;;
60432;SDS011;46286;48.098;11.590;2022-12-18T04:11:58;49.85;;;15.82;;
60432;SDS011;46286;48.098;11.590;2022-12-18T04:14:24;45.72;;;14.35;;
60432;SDS011;46286;48.098;11.590;2022-12-18T04:16:49;39.72;;;14.07;;
60432;SDS011;46286;48.098;11.590;2022-12-18T04:19:15;42.67;;;15.10;;
60432;SDS011;46286;48.098;11.590;2022-12-18T04:21:40;35.65;;;14.55;;
60432;SDS011;46286;48.098;11.590;2022-12-18T04:24:06;46.33;;;15.65;;
60432;SDS011;46286;48.098;11.590;2022-12-18T04:26:32;38.65;;;13.40;;
60432;SDS011;46286;48.098;11.590;2022-12-18T04:28:57;44.92;;;14.90;;
60432;SDS011;46286;48.098;11.590;2022-12-18T04:31:23;42.78;;;13.85;;
60432;SDS011;46286;48.098;11.590;2022-12-18T04:33:48;40.50;;;15.38;;
60432;SDS011;46286;48.098;11.590;2022-12-18T04:36:14;42.65;;;14.82;;
60432;SDS011;46286;48.098;11.590;2022-12-18T04:38:39;44.90;;;14.35;;
60432;SDS011;46286;48.098;11.590;2022-12-18T04:41:05;42.92;;;14.88;;
60432;SDS011;46286;48.098;11.590;2022-12-18T04:43:31;43.65;;;14.45;;
60432;SDS011;46286;48.098;11.590;2022-12-18T04:46:04;40.30;;;15.57;;
60432;SDS011;46286;48.098;11.590;2022-12-18T04:48:30;31.48;;;11.77;;
60432;SDS011;46286;48.098;11.590;2022-12-18T04:50:56;40.10;;;14.90;;
60432;SDS011;46286;48.098;11.590;2022-12-18T04:53:21;36.08;;;14.27;;
60432;SDS011;46286;48.098;11.590;2022-12-18T04:55:47;42.33;;;13.38;;
60432;SDS011;46286;48.098;11.590;2022-12-18T04:58:13;39.40;;;13.10;;
60432;SDS011;46286;48.098;11.590;2022-12-18T05:00:38;38.15;;;13.57;;
60432;SDS011;46286;48.098;11.590;2022-12-18T05:03:04;35.90;;;14.23;;
60432;SDS011;46286;48.098;11.590;2022-12-18T05:05:30;31.42;;;11.55;;
60432;SDS011;46286;48.098;11.590;2022-12-18T05:07:56;32.20;;;12.48;;
60432;SDS011;46286;48.098;11.590;2022-12-18T05:10:21;37.30;;;13.98;;
60432;SDS011;46286;48.098;11.590;2022-12-18T05:12:47;38.40;;;13.65;;
60432;SDS011;46286;48.098;11.590;2022-12-18T05:15:33;32.17;;;12.77;;
60432;SDS011;46286;48.098;11.590;2022-12-18T05:17:59;32.38;;;12.23;;
60432;SDS011;46286;48.098;11.590;2022-12-18T05:20:25;38.28;;;12.68;;
60432;SDS011;46286;48.098;11.590;2022-12-18T05:22:52;32.80;;;12.95;;
60432;SDS011;46286;48.098;11.590;2022-12-18T05:25:18;26.65;;;11.98;;
60432;SDS011;46286;48.098;11.590;2022-12-18T05:27:44;32.38;;;12.35;;
60432;SDS011;46286;48.098;11.590;2022-12-18T05:30:10;31.73;;;11.77;;
60432;SDS011;46286;48.098;11.590;2022-12-18T05:32:36;27.17;;;11.38;;
60432;SDS011;46286;48.098;11.590;2022-12-18T05:35:02;32.90;;;11.70;;
60432;SDS011;46286;48.098;11.590;2022-12-18T05:37:28;34.47;;;12.10;;
60432;SDS011;46286;48.098;11.590;2022-12-18T05:39:53;32.42;;;12.95;;
60432;SDS011;46286;48.098;11.590;2022-12-18T05:42:19;41.95;;;14.60;;
60432;SDS011;46286;48.098;11.590;2022-12-18T05:44:45;31.08;;;11.23;;
60432;SDS011;46286;48.098;11.590;2022-12-18T05:47:10;34.38;;;11.82;;
60432;SDS011;46286;48.098;11.590;2022-12-18T05:49:36;26.30;;;10.93;;
60432;SDS011;46286;48.098;11.590;2022-12-18T05:52:01;35.97;;;12.48;;
60432;SDS011;46286;48.098;11.590;2022-12-18T05:54:27;33.60;;;11.95;;
60432;SDS011;46286;48.098;11.590;2022-12-18T05:56:53;32.83;;;11.90;;
60432;SDS011;46286;48.098;11.590;2022-12-18T05:59:19;39.08;;;13.40;;
60432;SDS011;46286;48.098;11.590;2022-12-18T06:01:45;35.47;;;12.32;;
60432;SDS011;46286;48.098;11.590;2022-12-18T06:04:10;32.28;;;11.93;;
60432;SDS011;46286;48.098;11.590;2022-12-18T06:06:36;33.00;;;12.30;;
60432;SDS011;46286;48.098;11.590;2022-12-18T06:09:02;38.38;;;12.38;;
60432;SDS011;46286;48.098;11.590;2022-12-18T06:11:33;36.47;;;13.27;;
60432;SDS011;46286;48.098;11.590;2022-12-18T06:14:00;32.25;;;12.70;;
60432;SDS011;46286;48.098;11.590;2022-12-18T06:16:27;28.00;;;11.05;;
60432;SDS011;46286;48.098;11.590;2022-12-18T06:18:56;37.42;;;13.48;;
60432;SDS011;46286;48.098;11.590;2022-12-18T06:21:26;24.95;;;10.70;;
60432;SDS011;46286;48.098;11.590;2022-12-18T06:23:53;32.20;;;11.60;;
60432;SDS011;46286;48.098;11.590;2022-12-18T06:26:18;39.08;;;12.85;;
60432;SDS011;46286;48.098;11.590;2022-12-18T06:28:44;28.65;;;11.98;;
60432;SDS011;46286;48.098;11.590;2022-12-18T06:31:10;34.20;;;11.75;;
60432;SDS011;46286;48.098;11.590;2022-12-18T06:33:36;35.83;;;13.35;;
60432;SDS011;46286;48.098;11.590;2022-12-18T06:36:20;28.63;;;11.02;;
60432;SDS011;46286;48.098;11.590;2022-12-18T06:38:46;30.13;;;11.23;;
60432;SDS011;46286;48.098;11.590;2022-12-18T06:41:19;31.23;;;11.00;;
60432;SDS011;46286;48.098;11.590;2022-12-18T06:43:46;31.80;;;11.65;;
60432;SDS011;46286;48.098;11.590;2022-12-18T06:46:12;34.95;;;11.25;;
60432;SDS011;46286;48.098;11.590;2022-12-18T06:48:38;34.28;;;12.95;;
60432;SDS011;46286;48.098;11.590;2022-12-18T06:51:04;37.30;;;13.88;;
60432;SDS011;46286;48.098;11.590;2022-12-18T06:53:29;32.20;;;11.60;;
60432;SDS011;46286;48.098;11.590;2022-12-18T06:56:03;34.35;;;12.25;;
60432;SDS011;46286;48.098;11.590;2022-12-18T06:58:30;31.90;;;11.93;;
60432;SDS011;46286;48.098;11.590;2022-12-18T07:01:03;37.15;;;12.23;;
60432;SDS011;46286;48.098;11.590;2022-12-18T07:03:29;32.72;;;13.07;;
60432;SDS011;46286;48.098;11.590;2022-12-18T07:05:55;30.70;;;11.73;;
60432;SDS011;46286;48.098;11.590;2022-12-18T07:08:21;33.70;;;12.35;;
60432;SDS011;46286;48.098;11.590;2022-12-18T07:10:47;34.40;;;12.07;;
60432;SDS011;46286;48.098;11.590;2022-12-18T07:13:14;35.03;;;11.93;;
60432;SDS011;46286;48.098;11.590;2022-12-18T07:15:41;30.67;;;12.38;;
60432;SDS011;46286;48.098;11.590;2022-12-18T07:18:06;27.02;;;11.30;;
60432;SDS011;46286;48.098;11.590;2022-12-18T07:20:32;37.58;;;12.23;;
60432;SDS011;46286;48.098;11.590;2022-12-18T07:22:57;29.73;;;11.75;;
60432;SDS011;46286;48.098;11.590;2022-12-18T07:25:23;32.15;;;11.55;;
60432;SDS011;46286;48.098;11.590;2022-12-18T07:27:48;30.10;;;11.68;;
60432;SDS011;46286;48.098;11.590;2022-12-18T07:30:14;31.70;;;10.65;;
60432;SDS011;46286;48.098;11.590;2022-12-18T07:32:39;28.48;;;11.70;;
60432;SDS011;46286;48.098;11.590;2022-12-18T07:35:05;38.63;;;13.52;;
60432;SDS011;46286;48.098;11.590;2022-12-18T07:37:31;32.47;;;11.68;;
60432;SDS011;46286;48.098;11.590;2022-12-18T07:39:56;25.85;;;10.65;;
60432;SDS011;46286;48.098;11.590;2022-12-18T07:42:22;35.80;;;11.77;;
60432;SDS011;46286;48.098;11.590;2022-12-18T07:45:00;30.95;;;12.07;;
60432;SDS011;46286;48.098;11.590;2022-12-18T07:47:26;31.85;;;11.80;;
60432;SDS011;46286;48.098;11.590;2022-12-18T07:49:53;33.60;;;12.82;;
60432;SDS011;46286;48.098;11.590;2022-12-18T07:52:18;34.88;;;12.13;;
60432;SDS011;46286;48.098;11.590;2022-12-18T07:54:44;27.65;;;10.98;;
60432;SDS011;46286;48.098;11.590;2022-12-18T07:57:10;38.03;;;12.02;;
60432;SDS011;46286;48.098;11.590;2022-12-18T07:59:36;33.20;;;12.52;;
60432;SDS011;46286;48.098;11.590;2022-12-18T08:02:02;32.35;;;12.25;;
60432;SDS011;46286;48.098;11.590;2022-12-18T08:04:28;37.20;;;12.27;;
60432;SDS011;46286;48.098;11.590;2022-12-18T08:06:53;30.45;;;11.02;;
60432;SDS011;46286;48.098;11.590;2022-12-18T08:09:19;31.52;;;11.07;;
60432;SDS011;46286;48.098;11.590;2022-12-18T08:11:45;32.10;;;11.63;;
60432;SDS011;46286;48.098;11.590;2022-12-18T08:14:10;31.13;;;12.30;;
60432;SDS011;46286;48.098;11.590;2022-12-18T08:16:36;27.85;;;11.93;;
60432;SDS011;46286;48.098;11.590;2022-12-18T08:19:02;34.72;;;12.65;;
60432;SDS011;46286;48.098;11.590;2022-12-18T08:21:28;31.08;;;11.57;;
60432;SDS011;46286;48.098;11.590;2022-12-18T08:23:57;26.33;;;10.23;;
60432;SDS011;46286;48.098;11.590;2022-12-18T08:26:24;29.45;;;10.55;;
60432;SDS011;46286;48.098;11.590;2022-12-18T08:28:53;27.17;;;10.70;;
60432;SDS011;46286;48.098;11.590;2022-12-18T08:31:20;29.00;;;11.38;;
60432;SDS011;46286;48.098;11.590;2022-12-18T08:33:47;30.27;;;12.02;;
60432;SDS011;46286;48.098;11.590;2022-12-18T08:36:14;32.53;;;11.38;;
60432;SDS011;46286;48.098;11.590;2022-12-18T08:38:40;31.35;;;11.07;;
60432;SDS011;46286;48.098;11.590;2022-12-18T08:41:07;30.83;;;12.13;;
60432;SDS011;46286;48.098;11.590;2022-12-18T08:43:35;26.63;;;10.07;;
60432;SDS011;46286;48.098;11.590;2022-12-18T08:46:19;22.77;;;9.27;;
60432;SDS011;46286;48.098;11.590;2022-12-18T08:48:46;24.10;;;9.57;;
60432;SDS011;46286;48.098;11.590;2022-12-18T08:51:12;31.23;;;10.88;;
60432;SDS011;46286;48.098;11.590;2022-12-18T08:53:38;30.42;;;12.80;;
60432;SDS011;46286;48.098;11.590;2022-12-18T08:56:04;29.35;;;12.50;;
60432;SDS011;46286;48.098;11.590;2022-12-18T08:58:30;26.55;;;10.07;;
60432;SDS011;46286;48.098;11.590;2022-12-18T09:01:03;27.50;;;10.02;;
60432;SDS011;46286;48.098;11.590;2022-12-18T09:03:30;32.08;;;12.60;;
60432;SDS011;46286;48.098;11.590;2022-12-18T09:05:56;23.65;;;10.23;;
60432;SDS011;46286;48.098;11.590;2022-12-18T09:08:21;31.35;;;10.80;;
60432;SDS011;46286;48.098;11.590;2022-12-18T09:10:48;30.52;;;11.38;;
60432;SDS011;46286;48.098;11.590;2022-12-18T09:13:15;31.40;;;10.40;;
60432;SDS011;46286;48.098;11.590;2022-12-18T09:15:41;26.80;;;10.45;;
60432;SDS011;46286;48.098;11.590;2022-12-18T09:18:08;20.13;;;9.30;;
60432;SDS011;46286;48.098;11.590;2022-12-18T09:20:35;27.27;;;10.02;;
60432;SDS011;46286;48.098;11.590;2022-12-18T09:23:02;27.35;;;10.80;;
60432;SDS011;46286;48.098;11.590;2022-12-18T09:25:28;25.70;;;9.82;;
60432;SDS011;46286;48.098;11.590;2022-12-18T09:28:31;28.48;;;10.05;;
60432;SDS011;46286;48.098;11.590;2022-12-18T09:30:49;23.55;;;9.90;;
60432;SDS011;46286;48.098;11.590;2022-12-18T09:33:15;29.17;;;10.27;;
60432;SDS011;46286;48.098;11.590;2022-12-18T09:35:42;27.80;;;10.50;;
60432;SDS011;46286;48.098;11.590;2022-12-18T09:38:11;24.27;;;9.90;;
60432;SDS011;46286;48.098;11.590;2022-12-18T09:40:52;34.35;;;10.57;;
60432;SDS011;46286;48.098;11.590;2022-12-18T09:43:23;30.40;;;10.45;;
60432;SDS011;46286;48.098;11.590;2022-12-18T09:45:53;29.23;;;11.80;;
60432;SDS011;46286;48.098;11.590;2022-12-18T09:48:25;26.52;;;10.55;;
60432;SDS011;46286;48.098;11.590;2022-12-18T09:50:55;26.33;;;9.88;;
60432;SDS011;46286;48.098;11.590;2022-12-18T09:53:27;27.38;;;10.02;;
60432;SDS011;46286;48.098;11.590;2022-12-18T09:56:00;25.75;;;10.27;;
60432;SDS011;46286;48.098;11.590;2022-12-18T10:01:14;25.45;;;9.50;;
60432;SDS011;46286;48.098;11.590;2022-12-18T10:03:43;37.88;;;12.30;;
60432;SDS011;46286;48.098;11.590;2022-12-18T10:06:18;36.70;;;12.38;;
60432;SDS011;46286;48.098;11.590;2022-12-18T10:08:58;27.23;;;10.70;;
60432;SDS011;46286;48.098;11.590;2022-12-18T10:11:38;26.20;;;11.00;;
60432;SDS011;46286;48.098;11.590;2022-12-18T10:14:36;29.80;;;11.05;;
60432;SDS011;46286;48.098;11.590;2022-12-18T10:26:05;28.45;;;9.57;;
60432;SDS011;46286;48.098;11.590;2022-12-18T10:28:34;27.67;;;11.02;;
60432;SDS011;46286;48.098;11.590;2022-12-18T10:31:05;21.17;;;9.45;;
60432;SDS011;46286;48.098;11.590;2022-12-18T10:33:41;21.88;;;9.40;;
60432;SDS011;46286;48.098;11.590;2022-12-18T10:36:06;23.58;;;9.68;;
60432;SDS011;46286;48.098;11.590;2022-12-18T10:38:32;28.17;;;10.50;;
60432;SDS011;46286;48.098;11.590;2022-12-18T10:41:00;26.52;;;11.13;;
60432;SDS011;46286;48.098;11.590;2022-12-18T10:43:30;23.70;;;10.48;;
60432;SDS011;46286;48.098;11.590;2022-12-18T10:46:00;27.63;;;10.30;;
60432;SDS011;46286;48.098;11.590;2022-12-18T10:48:26;31.75;;;10.60;;
60432;SDS011;46286;48.098;11.590;2022-12-18T10:50:52;24.45;;;9.43;;
60432;SDS011;46286;48.098;11.590;2022-12-18T10:53:22;31.52;;;11.80;;
60432;SDS011;46286;48.098;11.590;2022-12-18T10:56:02;21.58;;;9.90;;
60432;SDS011;46286;48.098;11.590;2022-12-18T10:58:33;28.40;;;9.60;;
60432;SDS011;46286;48.098;11.590;2022-12-18T11:03:37;27.55;;;9.82;;
60432;SDS011;46286;48.098;11.590;2022-12-18T11:08:38;25.63;;;10.73;;
60432;SDS011;46286;48.098;11.590;2022-12-18T11:11:06;23.92;;;9.52;;
60432;SDS011;46286;48.098;11.590;2022-12-18T11:13:41;24.27;;;9.55;;
60432;SDS011;46286;48.098;11.590;2022-12-18T11:16:19;26.73;;;10.95;;
60432;SDS011;46286;48.098;11.590;2022-12-18T11:18:45;20.77;;;9.32;;
60432;SDS011;46286;48.098;11.590;2022-12-18T11:21:11;24.95;;;10.18;;
60432;SDS011;46286;48.098;11.590;2022-12-18T11:23:45;25.27;;;9.57;;
60432;SDS011;46286;48.098;11.590;2022-12-18T11:26:14;25.73;;;10.60;;
60432;SDS011;46286;48.098;11.590;2022-12-18T11:28:46;24.17;;;9.02;;
60432;SDS011;46286;48.098;11.590;2022-12-18T11:31:22;23.83;;;9.13;;
60432;SDS011;46286;48.098;11.590;2022-12-18T11:34:09;29.25;;;10.98;;
60432;SDS011;46286;48.098;11.590;2022-12-18T11:36:49;25.00;;;11.02;;
60432;SDS011;46286;48.098;11.590;2022-12-18T11:44:41;21.55;;;8.93;;
60432;SDS011;46286;48.098;11.590;2022-12-18T11:49:50;22.95;;;9.48;;
60432;SDS011;46286;48.098;11.590;2022-12-18T11:52:27;20.38;;;8.60;;
60432;SDS011;46286;48.098;11.590;2022-12-18T11:55:14;21.63;;;9.27;;
60432;SDS011;46286;48.098;11.590;2022-12-18T11:58:45;28.88;;;10.48;;
60432;SDS011;46286;48.098;11.590;2022-12-18T12:00:47;20.70;;;8.60;;
60432;SDS011;46286;48.098;11.590;2022-12-18T12:03:24;22.42;;;9.20;;
60432;SDS011;46286;48.098;11.590;2022-12-18T12:09:00;21.27;;;9.35;;
60432;SDS011;46286;48.098;11.590;2022-12-18T12:17:37;27.00;;;10.43;;
60432;SDS011;46286;48.098;11.590;2022-12-18T12:20:20;24.13;;;10.20;;
60432;SDS011;46286;48.098;11.590;2022-12-18T12:22:57;23.98;;;10.00;;
60432;SDS011;46286;48.098;11.590;2022-12-18T12:25:35;32.58;;;11.13;;
60432;SDS011;46286;48.098;11.590;2022-12-18T12:31:07;22.92;;;9.35;;
60432;SDS011;46286;48.098;11.590;2022-12-18T12:36:31;24.88;;;10.15;;
60432;SDS011;46286;48.098;11.590;2022-12-18T12:39:13;24.38;;;11.27;;
60432;SDS011;46286;48.098;11.590;2022-12-18T12:41:42;24.77;;;10.00;;
60432;SDS011;46286;48.098;11.590;2022-12-18T12:44:41;25.42;;;9.75;;
60432;SDS011;46286;48.098;11.590;2022-12-18T12:47:14;22.55;;;9.38;;
60432;SDS011;46286;48.098;11.590;2022-12-18T12:49:44;32.22;;;10.00;;
60432;SDS011;46286;48.098;11.590;2022-12-18T12:54:55;27.60;;;10.05;;
60432;SDS011;46286;48.098;11.590;2022-12-18T12:57:23;25.48;;;9.85;;
60432;SDS011;46286;48.098;11.590;2022-12-18T13:05:42;28.48;;;10.15;;
60432;SDS011;46286;48.098;11.590;2022-12-18T13:10:57;21.48;;;8.50;;
60432;SDS011;46286;48.098;11.590;2022-12-18T13:13:47;22.00;;;9.63;;
60432;SDS011;46286;48.098;11.590;2022-12-18T13:16:17;26.10;;;9.95;;
60432;SDS011;46286;48.098;11.590;2022-12-18T13:18:51;28.67;;;10.05;;
60432;SDS011;46286;48.098;11.590;2022-12-18T13:21:29;22.73;;;9.45;;
60432;SDS011;46286;48.098;11.590;2022-12-18T13:23:56;23.67;;;10.07;;
60432;SDS011;46286;48.098;11.590;2022-12-18T13:26:39;21.13;;;9.02;;
60432;SDS011;46286;48.098;11.590;2022-12-18T13:29:04;24.88;;;9.80;;
60432;SDS011;46286;48.098;11.590;2022-12-18T13:34:24;21.42;;;8.90;;
60432;SDS011;46286;48.098;11.590;2022-12-18T13:36:53;25.70;;;9.85;;
60432;SDS011;46286;48.098;11.590;2022-12-18T13:39:21;22.08;;;9.38;;
60432;SDS011;46286;48.098;11.590;2022-12-18T13:44:34;26.83;;;10.35;;
60432;SDS011;46286;48.098;11.590;2022-12-18T13:47:01;30.10;;;10.35;;
60432;SDS011;46286;48.098;11.590;2022-12-18T13:52:22;26.52;;;9.93;;
60432;SDS011;46286;48.098;11.590;2022-12-18T13:54:51;29.00;;;10.93;;
60432;SDS011;46286;48.098;11.590;2022-12-18T13:57:25;28.00;;;11.23;;
60432;SDS011;46286;48.098;11.590;2022-12-18T13:59:53;27.25;;;10.75;;
60432;SDS011;46286;48.098;11.590;2022-12-18T14:02:23;20.40;;;8.48;;
60432;SDS011;46286;48.098;11.590;2022-12-18T14:04:50;26.75;;;10.35;;
60432;SDS011;46286;48.098;11.590;2022-12-18T14:07:18;28.35;;;10.65;;
60432;SDS011;46286;48.098;11.590;2022-12-18T14:09:47;23.08;;;9.85;;
60432;SDS011;46286;48.098;11.590;2022-12-18T14:12:16;23.83;;;10.23;;
60432;SDS011;46286;48.098;11.590;2022-12-18T14:20:49;32.72;;;11.07;;
60432;SDS011;46286;48.098;11.590;2022-12-18T14:23:59;24.60;;;10.40;;
60432;SDS011;46286;48.098;11.590;2022-12-18T14:28:50;24.30;;;8.75;;
60432;SDS011;46286;48.098;11.590;2022-12-18T14:31:17;30.83;;;10.13;;
60432;SDS011;46286;48.098;11.590;2022-12-18T14:33:46;23.45;;;8.88;;
60432;SDS011;46286;48.098;11.590;2022-12-18T14:36:14;29.20;;;9.55;;
60432;SDS011;46286;48.098;11.590;2022-12-18T14:38:42;25.27;;;9.68;;
60432;SDS011;46286;48.098;11.590;2022-12-18T14:41:12;27.75;;;10.50;;
60432;SDS011;46286;48.098;11.590;2022-12-18T14:43:39;30.13;;;9.73;;
60432;SDS011;46286;48.098;11.590;2022-12-18T14:48:53;21.52;;;9.43;;
60432;SDS011;46286;48.098;11.590;2022-12-18T14:51:23;24.77;;;9.50;;
60432;SDS011;46286;48.098;11.590;2022-12-18T14:54:14;22.85;;;9.38;;
60432;SDS011;46286;48.098;11.590;2022-12-18T14:56:43;26.98;;;9.65;;
60432;SDS011;46286;48.098;11.590;2022-12-18T14:59:21;24.33;;;9.68;;
60432;SDS011;46286;48.098;11.590;2022-12-18T15:01:58;28.17;;;10.00;;
60432;SDS011;46286;48.098;11.590;2022-12-18T15:04:43;27.73;;;10.07;;
60432;SDS011;46286;48.098;11.590;2022-12-18T15:07:12;20.17;;;8.48;;
60432;SDS011;46286;48.098;11.590;2022-12-18T15:09:38;23.38;;;9.60;;
60432;SDS011;46286;48.098;11.590;2022-12-18T15:12:16;29.20;;;11.07;;
60432;SDS011;46286;48.098;11.590;2022-12-18T15:14:49;31.98;;;10.98;;
60432;SDS011;46286;48.098;11.590;2022-12-18T15:17:18;9.70;;;5.00;;
60432;SDS011;46286;48.098;11.590;2022-12-18T15:19:47;26.63;;;10.40;;
60432;SDS011;46286;48.098;11.590;2022-12-18T15:22:18;12.52;;;6.72;;
60432;SDS011;46286;48.098;11.590;2022-12-18T15:24:49;28.52;;;11.05;;
60432;SDS011;46286;48.098;11.590;2022-12-18T15:27:20;30.08;;;10.30;;
60432;SDS011;46286;48.098;11.590;2022-12-18T15:30:16;25.17;;;11.68;;
60432;SDS011;46286;48.098;11.590;2022-12-18T15:32:42;23.35;;;9.60;;
60432;SDS011;46286;48.098;11.590;2022-12-18T15:37:39;27.95;;;11.27;;
60432;SDS011;46286;48.098;11.590;2022-12-18T15:40:06;27.42;;;11.15;;
60432;SDS011;46286;48.098;11.590;2022-12-18T15:42:33;27.42;;;10.70;;
60432;SDS011;46286;48.098;11.590;2022-12-18T15:45:17;29.20;;;10.95;;
60432;SDS011;46286;48.098;11.590;2022-12-18T15:47:43;28.77;;;10.73;;
60432;SDS011;46286;48.098;11.590;2022-12-18T15:50:09;29.00;;;9.93;;
60432;SDS011;46286;48.098;11.590;2022-12-18T15:52:42;27.88;;;10.85;;
60432;SDS011;46286;48.098;11.590;2022-12-18T15:55:10;29.27;;;10.60;;
60432;SDS011;46286;48.098;11.590;2022-12-18T15:57:56;32.95;;;11.48;;
60432;SDS011;46286;48.098;11.590;2022-12-18T16:00:22;26.50;;;11.18;;
60432;SDS011;46286;48.098;11.590;2022-12-18T16:02:48;24.15;;;10.27;;
60432;SDS011;46286;48.098;11.590;2022-12-18T16:05:14;28.00;;;9.82;;
60432;SDS011;46286;48.098;11.590;2022-12-18T16:07:42;29.27;;;9.88;;
60432;SDS011;46286;48.098;11.590;2022-12-18T16:10:08;24.70;;;10.77;;
60432;SDS011;46286;48.098;11.590;2022-12-18T16:12:34;28.85;;;10.43;;